createdAt,value
2019-04-01T00:01:29.835Z,20.12
2019-04-01T00:04:00.719Z,19.37
2019-04-01T00:06:31.023Z,18.95
2019-04-01T00:09:00.653Z,18.65
2019-04-01T00:11:30.159Z,23.25
2019-04-01T00:13:58.371Z,19.95
2019-04-01T00:16:26.595Z,20.72
2019-04-01T00:19:03.004Z,20.40
2019-04-01T00:21:26.067Z,17.75
2019-04-01T00:23:54.279Z,18.87
2019-04-01T00:26:23.412Z,19.55
2019-04-01T00:28:59.014Z,18.05
2019-04-01T00:31:27.240Z,18.92
2019-04-01T00:33:55.465Z,21.52
2019-04-01T00:36:23.720Z,17.70
2019-04-01T00:38:52.495Z,18.02
2019-04-01T00:41:21.767Z,19.77
2019-04-01T00:43:57.365Z,17.70
2019-04-01T00:46:25.649Z,23.10
2019-04-01T00:48:53.857Z,17.80
2019-04-01T00:51:24.739Z,17.42
2019-04-01T00:53:53.220Z,17.87
2019-04-01T00:56:22.046Z,18.15
2019-04-01T00:58:50.330Z,14.93
2019-04-01T01:01:18.558Z,17.02
2019-04-01T01:03:47.108Z,19.05
2019-04-01T01:06:15.577Z,20.82
2019-04-01T01:08:44.727Z,18.25
2019-04-01T01:11:12.954Z,20.37
2019-04-01T01:13:41.170Z,20.97
2019-04-01T01:16:11.030Z,18.85
2019-04-01T01:18:39.239Z,17.42
2019-04-01T01:21:09.098Z,17.37
2019-04-01T01:23:37.322Z,20.72
2019-04-01T01:26:05.547Z,19.23
2019-04-01T01:28:35.255Z,18.32
2019-04-01T01:31:03.696Z,17.10
2019-04-01T01:33:31.910Z,16.73
2019-04-01T01:36:01.083Z,17.35
2019-04-01T01:38:30.463Z,19.15
2019-04-01T01:40:58.674Z,21.23
2019-04-01T01:43:26.890Z,19.42
2019-04-01T01:45:56.729Z,18.00
2019-04-01T01:48:24.950Z,17.60
2019-04-01T01:50:53.169Z,21.95
2019-04-01T01:53:22.470Z,17.70
2019-04-01T01:55:50.681Z,19.05
2019-04-01T01:58:22.041Z,18.62
2019-04-01T02:00:53.166Z,19.95
2019-04-01T02:03:21.942Z,20.15
2019-04-01T02:05:50.197Z,17.00
2019-04-01T02:08:19.806Z,21.25
2019-04-01T02:10:48.018Z,18.00
2019-04-01T02:13:20.099Z,18.82
2019-04-01T02:15:50.386Z,23.10
2019-04-01T02:18:18.757Z,20.08
2019-04-01T02:20:47.166Z,20.27
2019-04-01T02:23:15.414Z,17.50
2019-04-01T02:25:44.109Z,21.82
2019-04-01T02:28:12.337Z,17.35
2019-04-01T02:30:41.133Z,21.17
2019-04-01T02:33:09.351Z,19.30
2019-04-01T02:35:37.571Z,20.85
2019-04-01T02:38:05.777Z,21.50
2019-04-01T02:40:34.009Z,18.87
2019-04-01T02:43:02.225Z,18.23
2019-04-01T02:45:32.123Z,18.80
2019-04-01T02:48:00.330Z,26.00
2019-04-01T02:50:28.562Z,18.20
2019-04-01T02:52:56.782Z,22.30
2019-04-01T02:55:33.806Z,21.97
2019-04-01T02:58:02.009Z,21.00
2019-04-01T03:00:30.258Z,24.43
2019-04-01T03:02:58.482Z,24.77
2019-04-01T03:05:26.699Z,19.98
2019-04-01T03:07:56.323Z,21.73
2019-04-01T03:10:24.540Z,18.52
2019-04-01T03:12:55.134Z,21.55
2019-04-01T03:15:24.135Z,20.82
2019-04-01T03:17:52.366Z,28.38
2019-04-01T03:20:20.619Z,25.05
2019-04-01T03:22:48.833Z,23.65
2019-04-01T03:25:17.416Z,21.70
2019-04-01T03:27:49.187Z,24.23
2019-04-01T03:30:18.807Z,23.85
2019-04-01T03:32:48.871Z,27.52
2019-04-01T03:35:17.122Z,22.40
2019-04-01T03:37:47.256Z,24.55
2019-04-01T03:40:17.102Z,26.12
2019-04-01T03:42:48.603Z,23.25
2019-04-01T03:45:16.830Z,25.15
2019-04-01T03:47:45.058Z,23.80
2019-04-01T03:50:17.883Z,25.82
2019-04-01T03:52:46.138Z,26.12
2019-04-01T03:55:16.937Z,27.77
2019-04-01T03:57:45.166Z,21.40
2019-04-01T04:00:15.309Z,24.40
2019-04-01T04:02:44.104Z,23.25
2019-04-01T04:05:15.567Z,21.17
2019-04-01T04:07:43.789Z,20.88
2019-04-01T04:10:12.011Z,19.15
2019-04-01T04:12:41.866Z,26.87
2019-04-01T04:15:11.292Z,22.37
2019-04-01T04:17:41.133Z,19.20
2019-04-01T04:20:10.984Z,23.05
2019-04-01T04:22:39.198Z,23.75
2019-04-01T04:25:07.488Z,24.77
2019-04-01T04:27:35.704Z,26.35
2019-04-01T04:30:07.163Z,26.82
2019-04-01T04:32:35.370Z,23.55
2019-04-01T04:35:04.265Z,24.67
2019-04-01T04:37:32.467Z,29.15
2019-04-01T04:40:05.547Z,24.00
2019-04-01T04:42:37.258Z,25.92
2019-04-01T04:45:06.518Z,19.80
2019-04-01T04:47:35.842Z,21.87
2019-04-01T04:50:04.790Z,24.55
2019-04-01T04:52:34.873Z,21.68
2019-04-01T04:55:03.260Z,26.17
2019-04-01T04:57:36.914Z,26.80
2019-04-01T05:00:12.147Z,21.45
2019-04-01T05:02:43.695Z,21.73
2019-04-01T05:05:18.030Z,23.20
2019-04-01T05:07:49.757Z,21.87
2019-04-01T05:10:18.238Z,18.65
2019-04-01T05:12:50.927Z,22.77
2019-04-01T05:15:19.386Z,22.62
2019-04-01T05:17:48.162Z,19.67
2019-04-01T05:20:19.177Z,25.43
2019-04-01T05:22:50.318Z,19.77
2019-04-01T05:25:18.782Z,20.82
2019-04-01T05:27:47.155Z,17.60
2019-04-01T05:30:16.441Z,19.85
2019-04-01T05:32:44.900Z,22.02
2019-04-01T05:35:13.129Z,21.37
2019-04-01T05:37:41.365Z,20.50
2019-04-01T05:40:10.693Z,16.05
2019-04-01T05:42:39.155Z,16.95
2019-04-01T05:45:07.764Z,17.73
2019-04-01T05:47:40.642Z,19.55
2019-04-01T05:50:08.874Z,12.35
2019-04-01T05:52:37.098Z,16.37
2019-04-01T05:55:08.722Z,14.65
2019-04-01T05:57:35.741Z,16.77
2019-04-01T06:00:08.307Z,14.87
2019-04-01T06:02:37.669Z,13.10
2019-04-01T06:05:06.893Z,12.75
2019-04-01T06:07:37.073Z,11.12
2019-04-01T06:10:06.529Z,12.93
2019-04-01T06:12:35.014Z,12.25
2019-04-01T06:15:05.159Z,20.23
2019-04-01T06:17:34.566Z,11.90
2019-04-01T06:20:02.851Z,13.78
2019-04-01T06:22:31.296Z,14.25
2019-04-01T06:25:01.142Z,12.93
2019-04-01T06:27:32.773Z,11.18
2019-04-01T06:30:03.757Z,10.60
2019-04-01T06:32:33.928Z,11.38
2019-04-01T06:35:02.145Z,11.55
2019-04-01T06:37:30.354Z,13.05
2019-04-01T06:40:00.431Z,14.43
2019-04-01T06:42:28.698Z,10.53
2019-04-01T06:44:57.919Z,12.00
2019-04-01T06:47:28.761Z,10.82
2019-04-01T06:49:56.977Z,10.95
2019-04-01T06:52:26.825Z,11.40
2019-04-01T06:54:55.511Z,10.48
2019-04-01T06:57:26.593Z,12.05
2019-04-01T06:59:55.173Z,9.33
2019-04-01T07:02:25.050Z,9.18
2019-04-01T07:04:56.439Z,11.75
2019-04-01T07:07:25.294Z,13.00
2019-04-01T07:09:53.947Z,14.40
2019-04-01T07:12:24.204Z,12.93
2019-04-01T07:14:52.954Z,8.90
2019-04-01T07:17:21.729Z,12.18
2019-04-01T07:19:51.548Z,11.45
2019-04-01T07:22:20.389Z,12.78
2019-04-01T07:24:49.679Z,10.78
2019-04-01T07:27:21.284Z,11.65
2019-04-01T07:29:49.455Z,10.08
2019-04-01T07:32:19.559Z,11.70
2019-04-01T07:34:48.018Z,10.82
2019-04-01T07:37:17.282Z,9.70
2019-04-01T07:39:45.522Z,14.98
2019-04-01T07:42:16.985Z,11.30
2019-04-01T07:44:46.410Z,11.85
2019-04-01T07:47:14.870Z,13.38
2019-04-01T07:49:44.724Z,12.60
2019-04-01T07:52:12.954Z,10.95
2019-04-01T07:54:42.758Z,11.97
2019-04-01T07:57:21.118Z,14.05
2019-04-01T07:59:49.354Z,13.22
2019-04-01T08:02:20.296Z,14.80
2019-04-01T08:04:51.374Z,10.15
2019-04-01T08:07:19.597Z,11.38
2019-04-01T08:09:47.817Z,12.03
2019-04-01T08:12:17.017Z,12.60
2019-04-01T08:14:45.225Z,12.98
2019-04-01T08:17:13.701Z,12.70
2019-04-01T08:19:44.928Z,11.95
2019-04-01T08:22:13.146Z,14.07
2019-04-01T08:24:41.363Z,12.45
2019-04-01T08:27:11.212Z,10.82
2019-04-01T08:29:39.448Z,14.40
2019-04-01T08:32:07.655Z,15.43
2019-04-01T08:34:37.139Z,10.82
2019-04-01T08:37:05.394Z,13.40
2019-04-01T08:39:34.630Z,11.88
2019-04-01T08:42:02.835Z,13.25
2019-04-01T08:44:35.097Z,12.95
2019-04-01T08:47:01.037Z,20.68
2019-04-01T08:49:29.280Z,14.55
2019-04-01T08:51:58.782Z,12.73
2019-04-01T08:54:28.061Z,13.62
2019-04-01T08:56:56.288Z,12.70
2019-04-01T08:59:24.517Z,15.78
2019-04-01T09:01:54.565Z,12.20
2019-04-01T09:04:26.029Z,15.28
2019-04-01T09:06:55.870Z,13.75
2019-04-01T09:09:25.714Z,14.63
2019-04-01T09:11:55.207Z,20.08
2019-04-01T09:14:23.574Z,16.48
2019-04-01T09:16:52.837Z,18.70
2019-04-01T09:19:21.057Z,17.62
2019-04-01T09:21:49.521Z,18.85
2019-04-01T09:24:17.731Z,16.23
2019-04-01T09:26:45.963Z,19.60
2019-04-01T09:29:15.423Z,16.25
2019-04-01T09:31:43.653Z,17.42
2019-04-01T09:34:11.884Z,14.93
2019-04-01T09:36:41.341Z,16.67
2019-04-01T09:39:09.553Z,15.45
2019-04-01T09:41:37.769Z,19.20
2019-04-01T09:44:06.242Z,17.87
2019-04-01T09:46:34.445Z,15.63
2019-04-01T09:49:02.683Z,19.32
2019-04-01T09:51:32.097Z,17.05
2019-04-01T09:54:04.586Z,18.98
2019-04-01T09:56:34.437Z,24.32
2019-04-01T09:59:03.947Z,20.50
2019-04-01T10:01:32.151Z,15.30
2019-04-01T10:04:00.371Z,17.95
2019-04-01T10:06:30.818Z,14.75
2019-04-01T10:08:59.024Z,24.98
2019-04-01T10:11:27.505Z,17.40
2019-04-01T10:13:55.717Z,17.52
2019-04-01T10:16:26.525Z,16.23
2019-04-01T10:18:54.345Z,16.97
2019-04-01T10:21:22.588Z,14.93
2019-04-01T10:23:53.521Z,18.05
2019-04-01T10:26:21.742Z,20.02
2019-04-01T10:28:51.590Z,15.78
2019-04-01T10:31:19.801Z,15.90
2019-04-01T10:33:48.057Z,16.48
2019-04-01T10:36:19.831Z,16.27
2019-04-01T10:38:49.971Z,19.55
2019-04-01T10:41:21.658Z,21.70
2019-04-01T10:43:49.889Z,15.03
2019-04-01T10:46:18.114Z,17.20
2019-04-01T10:48:46.353Z,18.42
2019-04-01T10:51:15.685Z,19.82
2019-04-01T10:53:44.167Z,21.93
2019-04-01T10:56:14.007Z,18.12
2019-04-01T10:58:42.337Z,20.12
2019-04-01T11:01:11.999Z,14.68
2019-04-01T11:03:43.208Z,19.73
2019-04-01T11:06:11.538Z,21.48
2019-04-01T11:08:41.717Z,20.25
2019-04-01T11:11:09.980Z,19.02
2019-04-01T11:13:38.669Z,18.32
2019-04-01T11:16:31.429Z,17.23
2019-04-01T11:18:58.237Z,18.17
2019-04-01T11:21:28.014Z,18.37
2019-04-01T11:23:56.801Z,22.30
2019-04-01T11:26:25.045Z,22.45
2019-04-01T11:28:53.873Z,21.05
2019-04-01T11:31:22.117Z,24.80
2019-04-01T11:33:50.358Z,20.43
2019-04-01T11:36:18.600Z,18.40
2019-04-01T11:38:46.842Z,19.80
2019-04-01T11:41:15.259Z,19.75
2019-04-01T11:43:43.516Z,18.75
2019-04-01T11:46:12.681Z,20.10
2019-04-01T11:48:41.274Z,19.87
2019-04-01T11:51:09.513Z,23.18
2019-04-01T11:53:38.001Z,22.20
2019-04-01T11:56:06.226Z,20.45
2019-04-01T11:58:34.449Z,23.90
2019-04-01T12:01:02.665Z,21.82
2019-04-01T12:03:30.909Z,20.55
2019-04-01T12:05:59.140Z,23.50
2019-04-01T12:08:28.053Z,19.30
2019-04-01T12:10:57.697Z,21.77
2019-04-01T12:13:27.091Z,20.80
2019-04-01T12:15:57.062Z,22.55
2019-04-01T12:18:26.090Z,19.17
2019-04-01T12:20:54.306Z,25.48
2019-04-01T12:23:25.219Z,20.70
2019-04-01T12:25:57.218Z,22.82
2019-04-01T12:28:29.993Z,24.55
2019-04-01T12:30:59.889Z,23.98
2019-04-01T12:33:29.806Z,20.82
2019-04-01T12:36:00.183Z,27.22
2019-04-01T12:38:33.215Z,27.48
2019-04-01T12:41:02.706Z,21.80
2019-04-01T12:43:34.292Z,23.02
2019-04-01T12:46:02.510Z,24.72
2019-04-01T12:48:32.079Z,25.17
2019-04-01T12:51:02.158Z,24.92
2019-04-01T12:53:35.296Z,26.60
2019-04-01T12:56:08.650Z,26.02
2019-04-01T12:58:37.589Z,25.52
2019-04-01T13:01:09.417Z,23.83
2019-04-01T13:03:39.352Z,25.60
2019-04-01T13:06:10.403Z,26.80
2019-04-01T13:08:38.682Z,27.52
2019-04-01T13:11:07.535Z,23.18
2019-04-01T13:13:35.745Z,22.52
2019-04-01T13:16:04.985Z,26.20
2019-04-01T13:18:33.206Z,26.37
2019-04-01T13:21:02.476Z,26.73
2019-04-01T13:23:30.685Z,25.23
2019-04-01T13:25:59.158Z,28.20
2019-04-01T13:28:28.477Z,23.95
2019-04-01T13:31:01.087Z,27.52
2019-04-01T13:33:29.562Z,25.12
2019-04-01T13:35:57.769Z,24.25
2019-04-01T13:38:26.022Z,25.55
2019-04-01T13:40:54.248Z,26.87
2019-04-01T13:43:23.660Z,28.52
2019-04-01T13:45:51.870Z,26.12
2019-04-01T13:48:20.678Z,26.10
2019-04-01T13:50:48.906Z,27.00
2019-04-01T13:53:17.227Z,26.70
2019-04-01T13:55:48.490Z,26.07
2019-04-01T13:58:18.345Z,24.65
2019-04-01T14:00:46.654Z,29.07
2019-04-01T14:03:16.774Z,28.83
2019-04-01T14:05:45.082Z,27.27
2019-04-01T14:08:13.548Z,26.55
2019-04-01T14:10:41.772Z,25.72
2019-04-01T14:13:12.898Z,24.75
2019-04-01T14:15:41.377Z,25.70
2019-04-01T14:18:10.397Z,26.97
2019-04-01T14:20:38.654Z,22.20
2019-04-01T14:23:06.932Z,30.30
2019-04-01T14:25:40.574Z,24.65
2019-04-01T14:28:11.446Z,23.27
2019-04-01T14:30:39.684Z,26.07
2019-04-01T14:33:09.642Z,24.63
2019-04-01T14:35:37.892Z,26.10
2019-04-01T14:38:07.748Z,25.90
2019-04-01T14:40:37.462Z,26.60
2019-04-01T14:43:06.754Z,28.20
2019-04-01T14:45:35.482Z,29.50
2019-04-01T14:48:08.707Z,27.05
2019-04-01T14:50:37.425Z,24.55
2019-04-01T14:53:07.319Z,23.18
2019-04-01T14:55:35.706Z,27.27
2019-04-01T14:58:07.014Z,25.23
2019-04-01T15:00:35.502Z,22.80
2019-04-01T15:03:07.243Z,25.25
2019-04-01T15:05:38.356Z,26.25
2019-04-01T15:08:09.263Z,25.15
2019-04-01T15:10:42.190Z,24.55
2019-04-01T15:13:10.444Z,23.85
2019-04-01T15:15:59.406Z,26.95
2019-04-01T15:18:27.629Z,25.45
2019-04-01T15:20:58.760Z,26.15
2019-04-01T15:23:27.472Z,24.63
2019-04-01T15:25:55.978Z,22.32
2019-04-01T15:28:24.757Z,21.70
2019-04-01T15:30:52.988Z,31.40
2019-04-01T15:33:23.826Z,19.50
2019-04-01T15:35:53.687Z,22.75
2019-04-01T15:38:22.211Z,21.68
2019-04-01T15:40:51.523Z,20.88
2019-04-01T15:43:22.738Z,26.82
2019-04-01T15:45:52.611Z,24.25
2019-04-01T15:48:20.822Z,23.75
2019-04-01T15:50:49.298Z,23.02
2019-04-01T15:53:23.366Z,20.43
2019-04-01T15:55:50.489Z,24.43
2019-04-01T15:58:18.713Z,20.55
2019-04-01T16:00:47.182Z,23.47
2019-04-01T16:03:17.125Z,21.35
2019-04-01T16:05:47.597Z,21.75
2019-04-01T16:08:17.077Z,20.88
2019-04-01T16:10:45.313Z,22.48
2019-04-01T16:13:14.318Z,23.80
2019-04-01T16:15:43.803Z,23.32
2019-04-01T16:18:17.676Z,21.37
2019-04-01T16:20:47.557Z,25.02
2019-04-01T16:23:19.572Z,21.17
2019-04-01T16:25:47.827Z,20.72
2019-04-01T16:28:17.732Z,21.00
2019-04-01T16:30:46.083Z,25.70
2019-04-01T16:33:14.546Z,21.82
2019-04-01T16:35:45.850Z,24.52
2019-04-01T16:38:14.322Z,25.40
2019-04-01T16:40:45.487Z,26.10
2019-04-01T16:43:13.683Z,23.20
2019-04-01T16:45:44.873Z,23.77
2019-04-01T16:48:14.320Z,23.00
2019-04-01T16:50:42.563Z,22.62
2019-04-01T16:53:10.815Z,24.95
2019-04-01T16:55:41.480Z,24.10
2019-04-01T16:58:09.713Z,25.95
2019-04-01T17:00:39.582Z,23.83
2019-04-01T17:03:14.226Z,27.07
2019-04-01T17:05:50.948Z,24.20
2019-04-01T17:08:20.779Z,24.47
2019-04-01T17:10:49.738Z,21.93
2019-04-01T17:13:17.987Z,21.35
2019-04-01T17:15:51.131Z,24.45
2019-04-01T17:18:20.825Z,20.82
2019-04-01T17:20:49.380Z,22.93
2019-04-01T17:23:17.606Z,24.72
2019-04-01T17:25:47.614Z,24.65
2019-04-01T17:28:27.174Z,22.62
2019-04-01T17:31:00.666Z,21.20
2019-04-01T17:33:55.267Z,19.00
2019-04-01T17:39:26.524Z,20.65
2019-04-01T17:47:50.243Z,19.48
2019-04-01T17:50:18.471Z,50.50
2019-04-01T17:52:49.425Z,25.05
2019-04-01T17:55:17.690Z,20.72
2019-04-01T17:57:46.221Z,23.57
2019-04-01T18:00:19.727Z,23.87
2019-04-01T18:02:53.996Z,25.25
2019-04-01T18:05:23.227Z,25.12
2019-04-01T18:07:51.996Z,20.35
2019-04-01T18:10:22.563Z,23.07
2019-04-01T18:12:54.064Z,20.97
2019-04-01T18:15:25.955Z,19.15
2019-04-01T18:17:55.827Z,25.68
2019-04-01T18:20:27.024Z,30.65
2019-04-01T18:22:57.478Z,41.58
2019-04-01T18:25:26.461Z,68.17
2019-04-01T18:27:56.471Z,41.13
2019-04-01T18:30:27.344Z,25.52
2019-04-01T18:32:59.818Z,21.37
2019-04-01T18:35:30.667Z,19.40
2019-04-01T18:38:01.842Z,24.60
2019-04-01T18:40:32.956Z,20.65
2019-04-01T18:43:02.303Z,20.48
2019-04-01T18:45:30.538Z,19.07
2019-04-01T18:47:59.218Z,19.23
2019-04-01T18:50:33.370Z,18.70
2019-04-01T18:55:31.271Z,18.30
2019-04-01T18:57:59.764Z,22.35
2019-04-01T19:00:29.879Z,23.22
2019-04-01T19:02:58.658Z,19.57
2019-04-01T19:05:26.894Z,22.20
2019-04-01T19:07:56.606Z,18.12
2019-04-01T19:10:24.833Z,20.70
2019-04-01T19:13:05.202Z,18.15
2019-04-01T19:15:37.353Z,25.00
2019-04-01T19:17:56.414Z,20.57
2019-04-01T19:20:24.641Z,19.00
2019-04-01T19:22:56.030Z,20.88
2019-04-01T19:25:25.842Z,18.40
2019-04-01T19:27:54.671Z,19.55
2019-04-01T19:30:28.011Z,20.82
2019-04-01T19:32:58.015Z,17.23
2019-04-01T19:35:26.233Z,22.22
2019-04-01T19:37:56.356Z,22.25
2019-04-01T19:40:24.881Z,22.40
2019-04-01T19:42:57.272Z,22.52
2019-04-01T19:45:26.042Z,21.23
2019-04-01T19:47:57.405Z,24.25
2019-04-01T19:50:28.832Z,20.57
2019-04-01T19:52:57.061Z,26.35
2019-04-01T19:55:26.336Z,25.30
2019-04-01T19:57:58.447Z,22.37
2019-04-01T20:00:28.336Z,28.73
2019-04-01T20:02:56.862Z,19.80
2019-04-01T20:05:26.763Z,18.02
2019-04-01T20:07:56.601Z,27.93
2019-04-01T20:10:28.400Z,23.12
2019-04-01T20:12:57.950Z,24.60
2019-04-01T20:15:26.572Z,24.55
2019-04-01T20:17:57.549Z,20.70
2019-04-01T20:20:32.199Z,24.47
2019-04-01T20:23:04.948Z,20.10
2019-04-01T20:25:33.665Z,22.17
2019-04-01T20:28:10.689Z,20.05
2019-04-01T20:30:42.565Z,21.85
2019-04-01T20:33:17.464Z,20.80
2019-04-01T20:35:42.040Z,17.77
2019-04-01T20:38:12.909Z,25.52
2019-04-01T20:40:41.137Z,21.02
2019-04-01T20:43:12.198Z,17.40
2019-04-01T20:45:40.461Z,20.80
2019-04-01T20:48:09.141Z,19.40
2019-04-01T20:50:37.402Z,20.30
2019-04-01T20:53:06.245Z,21.55
2019-04-01T20:55:47.687Z,20.80
2019-04-01T20:58:07.111Z,21.60
2019-04-01T21:00:40.408Z,25.72
2019-04-01T21:03:08.619Z,22.93
2019-04-01T21:05:38.498Z,18.62
2019-04-01T21:08:09.016Z,20.52
2019-04-01T21:10:42.122Z,18.77
2019-04-01T21:13:11.157Z,21.15
2019-04-01T21:15:41.356Z,25.08
2019-04-01T21:18:11.198Z,20.97
2019-04-01T21:20:39.401Z,19.23
2019-04-01T21:23:09.250Z,18.52
2019-04-01T21:25:38.133Z,20.72
2019-04-01T21:28:06.361Z,17.15
2019-04-01T21:30:34.573Z,21.27
2019-04-01T21:33:04.980Z,18.75
2019-04-01T21:35:35.826Z,21.97
2019-04-01T21:38:11.452Z,24.92
2019-04-01T21:40:41.776Z,21.85
2019-04-01T21:43:10.222Z,22.05
2019-04-01T21:45:38.663Z,21.65
2019-04-01T21:48:07.806Z,18.75
2019-04-01T21:50:37.869Z,25.88
2019-04-01T21:53:06.807Z,21.05
2019-04-01T21:55:35.032Z,19.12
2019-04-01T21:58:03.987Z,19.67
2019-04-01T22:00:39.535Z,20.17
2019-04-01T22:03:08.254Z,18.62
2019-04-01T22:05:38.122Z,24.75
2019-04-01T22:08:07.201Z,21.15
2019-04-01T22:10:35.447Z,21.25
2019-04-01T22:13:04.242Z,20.08
2019-04-01T22:15:32.458Z,16.87
2019-04-01T22:18:00.938Z,28.00
2019-04-01T22:20:29.387Z,20.35
2019-04-01T22:22:58.317Z,20.92
2019-04-01T22:25:29.118Z,19.65
2019-04-01T22:28:00.463Z,23.07
2019-04-01T22:30:28.684Z,23.73
2019-04-01T22:32:59.174Z,18.75
2019-04-01T22:35:38.135Z,21.82
2019-04-01T22:37:58.314Z,19.87
2019-04-01T22:40:26.659Z,21.02
2019-04-01T22:42:56.208Z,25.43
2019-04-01T22:45:25.276Z,19.20
2019-04-01T22:47:54.880Z,17.98
2019-04-01T22:50:23.878Z,20.15
2019-04-01T22:52:52.094Z,19.57
2019-04-01T22:55:21.582Z,27.40
2019-04-01T22:57:50.358Z,27.25
2019-04-01T23:00:19.521Z,20.92
2019-04-01T23:02:48.813Z,23.62
2019-04-01T23:05:17.041Z,26.33
2019-04-01T23:07:46.901Z,28.98
2019-04-01T23:10:15.110Z,23.15
2019-04-01T23:12:43.334Z,25.43
2019-04-01T23:15:11.578Z,25.80
2019-04-01T23:17:41.431Z,24.45
2019-04-01T23:20:09.640Z,23.90
2019-04-01T23:22:40.591Z,26.57
2019-04-01T23:25:10.369Z,27.25
2019-04-01T23:27:40.110Z,25.82
2019-04-01T23:30:10.269Z,24.80
2019-04-01T23:32:41.500Z,20.27
2019-04-01T23:35:09.126Z,25.10
2019-04-01T23:37:38.974Z,22.75
2019-04-01T23:40:07.190Z,22.52
2019-04-01T23:42:38.133Z,24.43
2019-04-01T23:45:06.974Z,20.55
2019-04-01T23:47:36.350Z,29.10
2019-04-01T23:50:07.150Z,26.00
2019-04-01T23:52:35.373Z,24.18
2019-04-01T23:55:06.667Z,24.32
2019-04-01T23:57:35.370Z,24.05
